This is the latest recevied weather packets stored in our database for station/object CE3MXM-12. If no packets are shown the sender has not sent any weather packets the latest 10 day(s).
| Time | Temp. | Humidity | Pressure | Rain* | Wind** | Luminosity | Snow |
|---|---|---|---|---|---|---|---|
| 1777565287 | 18.89° C | 67% | 1012.7 hPa | - | - | - | - |
| 1777564989 | 18.33° C | 69% | 1012.8 hPa | - | - | - | - |
| 1777564687 | 17.78° C | 72% | 1013 hPa | - | - | - | - |
| 1777564387 | 17.22° C | 72% | 1013 hPa | - | - | - | - |
| 1777564087 | 16.67° C | 72% | 1012.8 hPa | - | - | - | - |
| 1777563787 | 16.67° C | 73% | 1012.9 hPa | - | - | - | - |
| 1777563487 | 16.67° C | 72% | 1012.7 hPa | - | - | - | - |
| 1777563187 | 16.67° C | 73% | 1013 hPa | - | - | - | - |
| 1777562887 | 16.11° C | 74% | 1012.7 hPa | - | - | - | - |
| 1777562586 | 15.56° C | 74% | 1012.8 hPa | - | - | - | - |
| 1777562286 | 15.56° C | 75% | 1012.6 hPa | - | - | - | - |
| 1777561986 | 15.56° C | 74% | 1012.6 hPa | - | - | - | - |
| 1777561686 | 16.11° C | 73% | 1012.6 hPa | - | - | - | - |
| 1777561386 | 15.56° C | 73% | 1012.6 hPa | - | - | - | - |
| 1777561086 | 15° C | 75% | 1012.5 hPa | - | - | - | - |
| 1777560786 | 15° C | 75% | 1012.4 hPa | - | - | - | - |
| 1777560486 | 15° C | 75% | 1012.4 hPa | - | - | - | - |
| 1777560186 | 15° C | 77% | 1012.5 hPa | - | - | - | - |
| 1777559885 | 14.44° C | 79% | 1012.6 hPa | - | - | - | - |
| 1777559586 | 13.89° C | 82% | 1012.5 hPa | - | - | - | - |
| 1777559285 | 12.22° C | 88% | 1012.4 hPa | - | - | - | - |
| 1777558985 | 11.67° C | 91% | 1012.4 hPa | - | - | - | - |
| 1777558685 | 11.11° C | 91% | 1012.2 hPa | - | - | - | - |
| 1777558385 | 11.11° C | 90% | 1012.1 hPa | - | - | - | - |
| 1777558085 | 11.11° C | 88% | 1012 hPa | - | - | - | - |
* Rain since midnight (hover to see other rain measurements)
** Current wind speed in m/s (hover to see current wind gust speed)